sensor_id;sensor_type;location;lat;lon;timestamp;P1;durP1;ratioP1;P2;durP2;ratioP2
11711;SDS011;5912;51.034;6.984;2023-12-28T00:01:36;2.75;;;1.52;;
11711;SDS011;5912;51.034;6.984;2023-12-28T00:04:01;3.40;;;1.63;;
11711;SDS011;5912;51.034;6.984;2023-12-28T00:06:27;4.53;;;1.95;;
11711;SDS011;5912;51.034;6.984;2023-12-28T00:08:52;3.25;;;1.70;;
11711;SDS011;5912;51.034;6.984;2023-12-28T00:11:17;3.28;;;1.70;;
11711;SDS011;5912;51.034;6.984;2023-12-28T00:13:43;2.22;;;1.50;;
11711;SDS011;5912;51.034;6.984;2023-12-28T00:16:08;3.33;;;1.52;;
11711;SDS011;5912;51.034;6.984;2023-12-28T00:18:33;2.83;;;1.35;;
11711;SDS011;5912;51.034;6.984;2023-12-28T00:27:26;2.55;;;1.35;;
11711;SDS011;5912;51.034;6.984;2023-12-28T00:29:52;1.02;;;0.93;;
11711;SDS011;5912;51.034;6.984;2023-12-28T00:32:17;1.33;;;1.20;;
11711;SDS011;5912;51.034;6.984;2023-12-28T00:34:43;2.63;;;1.25;;
11711;SDS011;5912;51.034;6.984;2023-12-28T00:37:08;1.80;;;1.25;;
11711;SDS011;5912;51.034;6.984;2023-12-28T00:39:33;4.15;;;1.20;;
11711;SDS011;5912;51.034;6.984;2023-12-28T00:42:00;2.47;;;1.10;;
11711;SDS011;5912;51.034;6.984;2023-12-28T00:44:25;1.88;;;1.23;;
11711;SDS011;5912;51.034;6.984;2023-12-28T00:46:51;3.15;;;1.10;;
11711;SDS011;5912;51.034;6.984;2023-12-28T00:49:16;3.70;;;1.10;;
11711;SDS011;5912;51.034;6.984;2023-12-28T00:51:41;2.20;;;0.95;;
11711;SDS011;5912;51.034;6.984;2023-12-28T00:54:06;3.10;;;1.23;;
11711;SDS011;5912;51.034;6.984;2023-12-28T00:56:32;1.77;;;1.10;;
11711;SDS011;5912;51.034;6.984;2023-12-28T00:58:57;1.65;;;1.17;;
11711;SDS011;5912;51.034;6.984;2023-12-28T01:01:22;2.15;;;1.17;;
11711;SDS011;5912;51.034;6.984;2023-12-28T01:03:48;1.23;;;0.80;;
11711;SDS011;5912;51.034;6.984;2023-12-28T01:06:13;2.60;;;1.20;;
11711;SDS011;5912;51.034;6.984;2023-12-28T01:08:39;4.05;;;1.40;;
11711;SDS011;5912;51.034;6.984;2023-12-28T01:11:04;4.35;;;1.55;;
11711;SDS011;5912;51.034;6.984;2023-12-28T01:13:29;3.83;;;1.60;;
11711;SDS011;5912;51.034;6.984;2023-12-28T01:15:55;1.85;;;1.30;;
11711;SDS011;5912;51.034;6.984;2023-12-28T01:18:21;3.55;;;1.50;;
11711;SDS011;5912;51.034;6.984;2023-12-28T01:20:46;1.85;;;1.20;;
11711;SDS011;5912;51.034;6.984;2023-12-28T01:23:11;3.10;;;1.30;;
11711;SDS011;5912;51.034;6.984;2023-12-28T01:25:37;2.00;;;1.45;;
11711;SDS011;5912;51.034;6.984;2023-12-28T01:28:02;1.80;;;1.20;;
11711;SDS011;5912;51.034;6.984;2023-12-28T01:30:28;4.85;;;1.30;;
11711;SDS011;5912;51.034;6.984;2023-12-28T01:32:54;1.98;;;1.10;;
11711;SDS011;5912;51.034;6.984;2023-12-28T01:35:19;2.17;;;1.40;;
11711;SDS011;5912;51.034;6.984;2023-12-28T01:37:44;2.17;;;1.33;;
11711;SDS011;5912;51.034;6.984;2023-12-28T01:40:10;2.13;;;1.48;;
11711;SDS011;5912;51.034;6.984;2023-12-28T01:42:35;1.77;;;1.30;;
11711;SDS011;5912;51.034;6.984;2023-12-28T01:45:01;1.75;;;1.33;;
11711;SDS011;5912;51.034;6.984;2023-12-28T01:47:26;1.38;;;1.15;;
11711;SDS011;5912;51.034;6.984;2023-12-28T01:49:54;1.77;;;1.38;;
11711;SDS011;5912;51.034;6.984;2023-12-28T01:52:20;2.28;;;1.40;;
11711;SDS011;5912;51.034;6.984;2023-12-28T01:54:45;1.42;;;1.10;;
11711;SDS011;5912;51.034;6.984;2023-12-28T01:57:11;1.40;;;1.05;;
11711;SDS011;5912;51.034;6.984;2023-12-28T01:59:38;1.60;;;1.27;;
11711;SDS011;5912;51.034;6.984;2023-12-28T02:02:04;2.40;;;1.30;;
11711;SDS011;5912;51.034;6.984;2023-12-28T02:04:29;1.58;;;1.10;;
11711;SDS011;5912;51.034;6.984;2023-12-28T02:06:56;1.50;;;1.17;;
11711;SDS011;5912;51.034;6.984;2023-12-28T02:09:23;3.05;;;1.10;;
11711;SDS011;5912;51.034;6.984;2023-12-28T02:11:48;2.25;;;1.10;;
11711;SDS011;5912;51.034;6.984;2023-12-28T02:14:14;3.05;;;1.38;;
11711;SDS011;5912;51.034;6.984;2023-12-28T02:16:44;1.58;;;1.15;;
11711;SDS011;5912;51.034;6.984;2023-12-28T02:19:19;2.08;;;0.90;;
11711;SDS011;5912;51.034;6.984;2023-12-28T02:21:56;2.03;;;1.23;;
11711;SDS011;5912;51.034;6.984;2023-12-28T02:24:24;1.30;;;0.85;;
11711;SDS011;5912;51.034;6.984;2023-12-28T02:26:49;2.42;;;1.00;;
11711;SDS011;5912;51.034;6.984;2023-12-28T02:29:14;1.38;;;0.93;;
11711;SDS011;5912;51.034;6.984;2023-12-28T02:31:42;1.50;;;0.98;;
11711;SDS011;5912;51.034;6.984;2023-12-28T02:34:22;0.95;;;0.90;;
11711;SDS011;5912;51.034;6.984;2023-12-28T02:36:54;1.75;;;1.00;;
11711;SDS011;5912;51.034;6.984;2023-12-28T02:39:21;1.10;;;0.90;;
11711;SDS011;5912;51.034;6.984;2023-12-28T02:41:47;0.75;;;0.70;;
11711;SDS011;5912;51.034;6.984;2023-12-28T02:44:13;1.55;;;0.82;;
11711;SDS011;5912;51.034;6.984;2023-12-28T02:46:38;0.80;;;0.80;;
11711;SDS011;5912;51.034;6.984;2023-12-28T02:49:03;1.27;;;0.80;;
11711;SDS011;5912;51.034;6.984;2023-12-28T02:51:29;1.90;;;1.00;;
11711;SDS011;5912;51.034;6.984;2023-12-28T02:53:54;2.03;;;0.98;;
11711;SDS011;5912;51.034;6.984;2023-12-28T02:56:19;1.40;;;0.70;;
11711;SDS011;5912;51.034;6.984;2023-12-28T02:58:45;1.08;;;0.63;;
11711;SDS011;5912;51.034;6.984;2023-12-28T03:01:10;0.75;;;0.75;;
11711;SDS011;5912;51.034;6.984;2023-12-28T03:03:35;1.33;;;0.80;;
11711;SDS011;5912;51.034;6.984;2023-12-28T03:06:00;1.25;;;0.70;;
11711;SDS011;5912;51.034;6.984;2023-12-28T03:08:26;1.52;;;0.75;;
11711;SDS011;5912;51.034;6.984;2023-12-28T03:10:51;0.93;;;0.65;;
11711;SDS011;5912;51.034;6.984;2023-12-28T03:13:17;1.00;;;0.80;;
11711;SDS011;5912;51.034;6.984;2023-12-28T03:15:43;0.75;;;0.40;;
11711;SDS011;5912;51.034;6.984;2023-12-28T03:18:08;1.55;;;0.85;;
11711;SDS011;5912;51.034;6.984;2023-12-28T03:20:33;2.88;;;1.23;;
11711;SDS011;5912;51.034;6.984;2023-12-28T03:22:59;1.65;;;1.10;;
11711;SDS011;5912;51.034;6.984;2023-12-28T03:25:24;1.83;;;1.20;;
11711;SDS011;5912;51.034;6.984;2023-12-28T03:27:49;2.72;;;1.02;;
11711;SDS011;5912;51.034;6.984;2023-12-28T03:30:15;2.03;;;1.20;;
11711;SDS011;5912;51.034;6.984;2023-12-28T03:32:40;1.27;;;1.00;;
11711;SDS011;5912;51.034;6.984;2023-12-28T03:35:05;2.78;;;1.00;;
11711;SDS011;5912;51.034;6.984;2023-12-28T03:37:32;1.23;;;0.95;;
11711;SDS011;5912;51.034;6.984;2023-12-28T03:39:57;1.25;;;1.15;;
11711;SDS011;5912;51.034;6.984;2023-12-28T03:42:23;1.10;;;0.90;;
11711;SDS011;5912;51.034;6.984;2023-12-28T03:44:48;2.65;;;1.20;;
11711;SDS011;5912;51.034;6.984;2023-12-28T03:47:14;2.53;;;1.35;;
11711;SDS011;5912;51.034;6.984;2023-12-28T03:49:39;1.75;;;1.30;;
11711;SDS011;5912;51.034;6.984;2023-12-28T03:52:05;3.85;;;1.50;;
11711;SDS011;5912;51.034;6.984;2023-12-28T03:54:30;3.55;;;1.55;;
11711;SDS011;5912;51.034;6.984;2023-12-28T03:56:55;1.52;;;1.10;;
11711;SDS011;5912;51.034;6.984;2023-12-28T03:59:21;2.88;;;1.02;;
11711;SDS011;5912;51.034;6.984;2023-12-28T04:01:46;3.53;;;1.90;;
11711;SDS011;5912;51.034;6.984;2023-12-28T04:04:12;5.38;;;1.70;;
11711;SDS011;5912;51.034;6.984;2023-12-28T04:06:37;5.50;;;1.70;;
11711;SDS011;5912;51.034;6.984;2023-12-28T04:09:03;3.90;;;1.48;;
11711;SDS011;5912;51.034;6.984;2023-12-28T04:11:28;4.03;;;2.28;;
11711;SDS011;5912;51.034;6.984;2023-12-28T04:13:54;3.92;;;1.85;;
11711;SDS011;5912;51.034;6.984;2023-12-28T04:16:19;1.73;;;1.25;;
11711;SDS011;5912;51.034;6.984;2023-12-28T04:18:45;1.33;;;1.08;;
11711;SDS011;5912;51.034;6.984;2023-12-28T04:21:11;2.22;;;1.38;;
11711;SDS011;5912;51.034;6.984;2023-12-28T04:23:37;1.83;;;1.20;;
11711;SDS011;5912;51.034;6.984;2023-12-28T04:26:04;3.70;;;1.42;;
11711;SDS011;5912;51.034;6.984;2023-12-28T04:28:29;2.08;;;1.23;;
11711;SDS011;5912;51.034;6.984;2023-12-28T04:30:55;2.70;;;1.35;;
11711;SDS011;5912;51.034;6.984;2023-12-28T04:33:20;2.33;;;1.42;;
11711;SDS011;5912;51.034;6.984;2023-12-28T04:35:46;2.28;;;1.08;;
11711;SDS011;5912;51.034;6.984;2023-12-28T04:38:11;3.85;;;1.40;;
11711;SDS011;5912;51.034;6.984;2023-12-28T04:40:37;1.38;;;1.05;;
11711;SDS011;5912;51.034;6.984;2023-12-28T04:43:02;1.30;;;1.10;;
11711;SDS011;5912;51.034;6.984;2023-12-28T04:45:28;2.30;;;0.95;;
11711;SDS011;5912;51.034;6.984;2023-12-28T04:47:53;1.90;;;1.05;;
11711;SDS011;5912;51.034;6.984;2023-12-28T04:50:19;1.52;;;1.10;;
11711;SDS011;5912;51.034;6.984;2023-12-28T04:52:44;2.05;;;1.20;;
11711;SDS011;5912;51.034;6.984;2023-12-28T04:55:09;3.33;;;1.10;;
11711;SDS011;5912;51.034;6.984;2023-12-28T04:57:35;1.77;;;1.13;;
11711;SDS011;5912;51.034;6.984;2023-12-28T05:00:00;1.30;;;1.10;;
11711;SDS011;5912;51.034;6.984;2023-12-28T05:02:25;2.08;;;1.30;;
11711;SDS011;5912;51.034;6.984;2023-12-28T05:04:51;2.03;;;1.20;;
11711;SDS011;5912;51.034;6.984;2023-12-28T05:07:16;2.92;;;1.33;;
11711;SDS011;5912;51.034;6.984;2023-12-28T05:09:41;1.80;;;1.10;;
11711;SDS011;5912;51.034;6.984;2023-12-28T05:12:06;1.10;;;0.90;;
11711;SDS011;5912;51.034;6.984;2023-12-28T05:14:32;1.60;;;1.00;;
11711;SDS011;5912;51.034;6.984;2023-12-28T05:16:58;1.40;;;1.00;;
11711;SDS011;5912;51.034;6.984;2023-12-28T05:19:23;1.80;;;0.93;;
11711;SDS011;5912;51.034;6.984;2023-12-28T05:21:48;2.45;;;0.90;;
11711;SDS011;5912;51.034;6.984;2023-12-28T05:24:14;1.13;;;1.02;;
11711;SDS011;5912;51.034;6.984;2023-12-28T05:26:39;1.08;;;0.98;;
11711;SDS011;5912;51.034;6.984;2023-12-28T05:29:04;3.53;;;1.23;;
11711;SDS011;5912;51.034;6.984;2023-12-28T05:31:30;1.63;;;1.10;;
11711;SDS011;5912;51.034;6.984;2023-12-28T05:33:55;2.40;;;1.10;;
11711;SDS011;5912;51.034;6.984;2023-12-28T05:36:21;1.40;;;1.10;;
11711;SDS011;5912;51.034;6.984;2023-12-28T05:38:47;1.77;;;1.10;;
11711;SDS011;5912;51.034;6.984;2023-12-28T05:41:12;2.28;;;1.40;;
11711;SDS011;5912;51.034;6.984;2023-12-28T05:43:38;2.35;;;1.20;;
11711;SDS011;5912;51.034;6.984;2023-12-28T05:46:04;3.38;;;1.30;;
11711;SDS011;5912;51.034;6.984;2023-12-28T05:48:29;2.70;;;1.10;;
11711;SDS011;5912;51.034;6.984;2023-12-28T05:50:55;1.75;;;1.10;;
11711;SDS011;5912;51.034;6.984;2023-12-28T05:53:23;1.52;;;1.02;;
11711;SDS011;5912;51.034;6.984;2023-12-28T05:55:48;1.67;;;1.05;;
11711;SDS011;5912;51.034;6.984;2023-12-28T05:58:13;2.03;;;1.40;;
11711;SDS011;5912;51.034;6.984;2023-12-28T06:00:39;2.10;;;1.20;;
11711;SDS011;5912;51.034;6.984;2023-12-28T06:03:04;1.80;;;1.38;;
11711;SDS011;5912;51.034;6.984;2023-12-28T06:05:30;1.95;;;1.25;;
11711;SDS011;5912;51.034;6.984;2023-12-28T06:07:56;1.95;;;1.70;;
11711;SDS011;5912;51.034;6.984;2023-12-28T06:10:22;4.60;;;1.50;;
11711;SDS011;5912;51.034;6.984;2023-12-28T06:12:47;5.03;;;2.03;;
11711;SDS011;5912;51.034;6.984;2023-12-28T06:15:13;2.97;;;1.90;;
11711;SDS011;5912;51.034;6.984;2023-12-28T06:17:38;3.67;;;1.48;;
11711;SDS011;5912;51.034;6.984;2023-12-28T06:20:04;5.00;;;1.92;;
11711;SDS011;5912;51.034;6.984;2023-12-28T06:22:29;2.65;;;1.75;;
11711;SDS011;5912;51.034;6.984;2023-12-28T06:24:55;3.33;;;1.80;;
11711;SDS011;5912;51.034;6.984;2023-12-28T06:27:20;3.75;;;2.13;;
11711;SDS011;5912;51.034;6.984;2023-12-28T06:29:46;2.58;;;1.80;;
11711;SDS011;5912;51.034;6.984;2023-12-28T06:32:11;4.38;;;2.08;;
11711;SDS011;5912;51.034;6.984;2023-12-28T06:34:36;4.30;;;1.77;;
11711;SDS011;5912;51.034;6.984;2023-12-28T06:37:02;3.42;;;1.60;;
11711;SDS011;5912;51.034;6.984;2023-12-28T06:39:27;3.85;;;1.40;;
11711;SDS011;5912;51.034;6.984;2023-12-28T06:41:52;2.97;;;1.40;;
11711;SDS011;5912;51.034;6.984;2023-12-28T06:44:18;1.90;;;1.38;;
11711;SDS011;5912;51.034;6.984;2023-12-28T06:46:43;2.15;;;1.45;;
11711;SDS011;5912;51.034;6.984;2023-12-28T06:49:09;2.97;;;1.52;;
11711;SDS011;5912;51.034;6.984;2023-12-28T06:51:34;4.95;;;1.83;;
11711;SDS011;5912;51.034;6.984;2023-12-28T06:53:59;3.58;;;1.48;;
11711;SDS011;5912;51.034;6.984;2023-12-28T06:56:25;3.00;;;1.30;;
11711;SDS011;5912;51.034;6.984;2023-12-28T06:58:50;3.35;;;1.92;;
11711;SDS011;5912;51.034;6.984;2023-12-28T07:01:15;2.83;;;1.60;;
11711;SDS011;5912;51.034;6.984;2023-12-28T07:03:41;3.92;;;1.70;;
11711;SDS011;5912;51.034;6.984;2023-12-28T07:06:07;2.50;;;1.40;;
11711;SDS011;5912;51.034;6.984;2023-12-28T07:08:33;5.47;;;1.58;;
11711;SDS011;5912;51.034;6.984;2023-12-28T07:10:58;2.60;;;1.42;;
11711;SDS011;5912;51.034;6.984;2023-12-28T07:13:23;3.08;;;1.50;;
11711;SDS011;5912;51.034;6.984;2023-12-28T07:15:49;3.45;;;1.67;;
11711;SDS011;5912;51.034;6.984;2023-12-28T07:18:14;6.53;;;2.00;;
11711;SDS011;5912;51.034;6.984;2023-12-28T07:20:39;3.70;;;1.58;;
11711;SDS011;5912;51.034;6.984;2023-12-28T07:23:05;3.90;;;1.40;;
11711;SDS011;5912;51.034;6.984;2023-12-28T07:25:30;2.70;;;1.70;;
11711;SDS011;5912;51.034;6.984;2023-12-28T07:27:55;4.47;;;1.80;;
11711;SDS011;5912;51.034;6.984;2023-12-28T07:30:21;3.28;;;1.65;;
11711;SDS011;5912;51.034;6.984;2023-12-28T07:32:46;3.17;;;1.45;;
11711;SDS011;5912;51.034;6.984;2023-12-28T07:35:11;7.72;;;1.63;;
11711;SDS011;5912;51.034;6.984;2023-12-28T07:37:37;2.15;;;1.50;;
11711;SDS011;5912;51.034;6.984;2023-12-28T07:40:03;2.95;;;1.58;;
11711;SDS011;5912;51.034;6.984;2023-12-28T07:42:29;3.28;;;1.38;;
11711;SDS011;5912;51.034;6.984;2023-12-28T07:44:54;3.13;;;1.50;;
11711;SDS011;5912;51.034;6.984;2023-12-28T07:47:20;4.78;;;1.60;;
11711;SDS011;5912;51.034;6.984;2023-12-28T07:49:45;3.85;;;1.50;;
11711;SDS011;5912;51.034;6.984;2023-12-28T07:52:11;3.53;;;1.55;;
11711;SDS011;5912;51.034;6.984;2023-12-28T07:54:36;3.53;;;1.88;;
11711;SDS011;5912;51.034;6.984;2023-12-28T07:57:01;2.50;;;1.63;;
11711;SDS011;5912;51.034;6.984;2023-12-28T07:59:26;4.10;;;1.70;;
11711;SDS011;5912;51.034;6.984;2023-12-28T08:01:52;3.58;;;1.70;;
11711;SDS011;5912;51.034;6.984;2023-12-28T08:04:17;7.95;;;1.70;;
11711;SDS011;5912;51.034;6.984;2023-12-28T08:06:42;3.15;;;1.90;;
11711;SDS011;5912;51.034;6.984;2023-12-28T08:09:08;3.33;;;1.83;;
11711;SDS011;5912;51.034;6.984;2023-12-28T08:11:33;2.60;;;1.55;;
11711;SDS011;5912;51.034;6.984;2023-12-28T08:13:59;2.42;;;1.30;;
11711;SDS011;5912;51.034;6.984;2023-12-28T08:16:24;4.32;;;1.77;;
11711;SDS011;5912;51.034;6.984;2023-12-28T08:18:51;3.03;;;1.40;;
11711;SDS011;5912;51.034;6.984;2023-12-28T08:21:16;3.58;;;1.70;;
11711;SDS011;5912;51.034;6.984;2023-12-28T08:23:42;4.18;;;1.70;;
11711;SDS011;5912;51.034;6.984;2023-12-28T08:26:07;4.25;;;1.75;;
11711;SDS011;5912;51.034;6.984;2023-12-28T08:28:32;3.45;;;2.08;;
11711;SDS011;5912;51.034;6.984;2023-12-28T08:30:58;5.15;;;2.10;;
11711;SDS011;5912;51.034;6.984;2023-12-28T08:33:23;5.55;;;2.20;;
11711;SDS011;5912;51.034;6.984;2023-12-28T08:35:48;3.15;;;2.25;;
11711;SDS011;5912;51.034;6.984;2023-12-28T08:38:14;3.65;;;2.10;;
11711;SDS011;5912;51.034;6.984;2023-12-28T08:40:39;2.72;;;1.80;;
11711;SDS011;5912;51.034;6.984;2023-12-28T08:43:04;4.07;;;1.73;;
11711;SDS011;5912;51.034;6.984;2023-12-28T08:45:29;5.07;;;2.13;;
11711;SDS011;5912;51.034;6.984;2023-12-28T08:47:55;6.68;;;2.10;;
11711;SDS011;5912;51.034;6.984;2023-12-28T08:50:21;6.10;;;2.35;;
11711;SDS011;5912;51.034;6.984;2023-12-28T08:52:46;8.82;;;2.03;;
11711;SDS011;5912;51.034;6.984;2023-12-28T08:55:12;3.53;;;2.03;;
11711;SDS011;5912;51.034;6.984;2023-12-28T08:57:37;4.13;;;1.67;;
11711;SDS011;5912;51.034;6.984;2023-12-28T09:00:04;3.53;;;1.20;;
11711;SDS011;5912;51.034;6.984;2023-12-28T09:02:30;3.22;;;1.17;;
11711;SDS011;5912;51.034;6.984;2023-12-28T09:04:56;3.90;;;1.30;;
11711;SDS011;5912;51.034;6.984;2023-12-28T09:07:23;3.70;;;1.50;;
11711;SDS011;5912;51.034;6.984;2023-12-28T09:09:49;4.32;;;1.60;;
11711;SDS011;5912;51.034;6.984;2023-12-28T09:12:14;4.95;;;1.70;;
11711;SDS011;5912;51.034;6.984;2023-12-28T09:14:39;3.95;;;1.48;;
11711;SDS011;5912;51.034;6.984;2023-12-28T09:17:05;2.28;;;1.20;;
11711;SDS011;5912;51.034;6.984;2023-12-28T09:19:30;3.75;;;1.10;;
11711;SDS011;5912;51.034;6.984;2023-12-28T09:21:55;3.67;;;1.13;;
11711;SDS011;5912;51.034;6.984;2023-12-28T09:24:20;2.78;;;1.00;;
11711;SDS011;5912;51.034;6.984;2023-12-28T09:30:08;3.03;;;1.30;;
11711;SDS011;5912;51.034;6.984;2023-12-28T09:32:33;3.45;;;1.33;;
11711;SDS011;5912;51.034;6.984;2023-12-28T09:34:58;3.67;;;1.42;;
11711;SDS011;5912;51.034;6.984;2023-12-28T09:37:24;2.83;;;1.30;;
11711;SDS011;5912;51.034;6.984;2023-12-28T09:39:49;5.22;;;1.40;;
11711;SDS011;5912;51.034;6.984;2023-12-28T09:42:25;5.13;;;1.58;;
11711;SDS011;5912;51.034;6.984;2023-12-28T09:44:54;2.97;;;1.38;;
11711;SDS011;5912;51.034;6.984;2023-12-28T09:47:19;3.65;;;1.30;;
11711;SDS011;5912;51.034;6.984;2023-12-28T09:49:45;6.70;;;1.50;;
11711;SDS011;5912;51.034;6.984;2023-12-28T09:52:10;4.28;;;1.35;;
11711;SDS011;5912;51.034;6.984;2023-12-28T09:54:36;6.25;;;1.42;;
11711;SDS011;5912;51.034;6.984;2023-12-28T09:57:01;3.20;;;1.15;;
11711;SDS011;5912;51.034;6.984;2023-12-28T09:59:27;4.68;;;1.10;;
11711;SDS011;5912;51.034;6.984;2023-12-28T10:01:54;7.05;;;1.50;;
11711;SDS011;5912;51.034;6.984;2023-12-28T10:04:20;6.60;;;1.30;;
11711;SDS011;5912;51.034;6.984;2023-12-28T10:06:46;7.07;;;1.50;;
11711;SDS011;5912;51.034;6.984;2023-12-28T10:09:12;2.25;;;1.13;;
11711;SDS011;5912;51.034;6.984;2023-12-28T10:11:37;3.90;;;1.48;;
11711;SDS011;5912;51.034;6.984;2023-12-28T10:14:03;3.38;;;1.00;;
11711;SDS011;5912;51.034;6.984;2023-12-28T10:16:29;6.15;;;1.60;;
11711;SDS011;5912;51.034;6.984;2023-12-28T10:18:55;2.95;;;1.02;;
11711;SDS011;5912;51.034;6.984;2023-12-28T10:21:22;2.45;;;1.02;;
11711;SDS011;5912;51.034;6.984;2023-12-28T10:23:48;4.13;;;1.48;;
11711;SDS011;5912;51.034;6.984;2023-12-28T10:26:13;2.35;;;1.27;;
11711;SDS011;5912;51.034;6.984;2023-12-28T10:28:39;3.72;;;1.02;;
11711;SDS011;5912;51.034;6.984;2023-12-28T10:31:04;3.28;;;1.27;;
11711;SDS011;5912;51.034;6.984;2023-12-28T10:33:34;4.20;;;1.30;;
11711;SDS011;5912;51.034;6.984;2023-12-28T10:36:06;5.47;;;1.30;;
11711;SDS011;5912;51.034;6.984;2023-12-28T10:38:34;3.85;;;0.98;;
11711;SDS011;5912;51.034;6.984;2023-12-28T10:41:08;4.32;;;1.10;;
11711;SDS011;5912;51.034;6.984;2023-12-28T10:43:38;4.75;;;1.20;;
11711;SDS011;5912;51.034;6.984;2023-12-28T10:46:23;4.00;;;1.30;;
11711;SDS011;5912;51.034;6.984;2023-12-28T10:48:52;5.18;;;1.70;;
11711;SDS011;5912;51.034;6.984;2023-12-28T10:51:23;2.75;;;1.20;;
11711;SDS011;5912;51.034;6.984;2023-12-28T10:54:06;5.50;;;1.10;;
11711;SDS011;5912;51.034;6.984;2023-12-28T10:57:01;6.00;;;1.48;;
11711;SDS011;5912;51.034;6.984;2023-12-28T10:59:41;4.35;;;1.10;;
11711;SDS011;5912;51.034;6.984;2023-12-28T11:02:19;5.30;;;1.20;;
11711;SDS011;5912;51.034;6.984;2023-12-28T11:04:49;3.25;;;1.30;;
11711;SDS011;5912;51.034;6.984;2023-12-28T11:07:15;3.85;;;1.30;;
11711;SDS011;5912;51.034;6.984;2023-12-28T11:09:43;5.32;;;1.55;;
11711;SDS011;5912;51.034;6.984;2023-12-28T11:12:09;5.88;;;1.13;;
11711;SDS011;5912;51.034;6.984;2023-12-28T11:14:41;4.10;;;1.38;;
11711;SDS011;5912;51.034;6.984;2023-12-28T11:17:07;4.18;;;1.42;;
11711;SDS011;5912;51.034;6.984;2023-12-28T11:19:34;3.92;;;1.30;;
11711;SDS011;5912;51.034;6.984;2023-12-28T11:22:01;2.47;;;1.10;;
11711;SDS011;5912;51.034;6.984;2023-12-28T11:24:28;6.05;;;1.48;;
11711;SDS011;5912;51.034;6.984;2023-12-28T11:26:54;4.15;;;1.27;;
11711;SDS011;5912;51.034;6.984;2023-12-28T11:29:20;2.78;;;1.30;;
11711;SDS011;5912;51.034;6.984;2023-12-28T11:31:59;4.53;;;1.50;;
11711;SDS011;5912;51.034;6.984;2023-12-28T11:34:26;4.03;;;1.25;;
11711;SDS011;5912;51.034;6.984;2023-12-28T11:36:54;3.20;;;0.95;;
11711;SDS011;5912;51.034;6.984;2023-12-28T11:39:31;4.85;;;1.15;;
11711;SDS011;5912;51.034;6.984;2023-12-28T11:42:00;5.22;;;1.52;;
11711;SDS011;5912;51.034;6.984;2023-12-28T11:44:28;4.22;;;1.13;;
11711;SDS011;5912;51.034;6.984;2023-12-28T11:46:53;5.13;;;1.63;;
11711;SDS011;5912;51.034;6.984;2023-12-28T11:49:24;5.20;;;1.40;;
11711;SDS011;5912;51.034;6.984;2023-12-28T11:52:00;4.85;;;1.10;;
11711;SDS011;5912;51.034;6.984;2023-12-28T11:54:26;4.57;;;1.20;;
11711;SDS011;5912;51.034;6.984;2023-12-28T11:56:51;4.30;;;1.70;;
11711;SDS011;5912;51.034;6.984;2023-12-28T11:59:18;4.25;;;1.35;;
11711;SDS011;5912;51.034;6.984;2023-12-28T12:01:48;4.47;;;1.20;;
11711;SDS011;5912;51.034;6.984;2023-12-28T12:04:15;2.45;;;0.80;;
11711;SDS011;5912;51.034;6.984;2023-12-28T12:06:44;2.10;;;0.95;;
11711;SDS011;5912;51.034;6.984;2023-12-28T12:09:10;4.15;;;1.15;;
11711;SDS011;5912;51.034;6.984;2023-12-28T12:11:36;3.50;;;1.00;;
11711;SDS011;5912;51.034;6.984;2023-12-28T12:14:03;5.68;;;1.42;;
11711;SDS011;5912;51.034;6.984;2023-12-28T12:16:31;4.35;;;1.00;;
11711;SDS011;5912;51.034;6.984;2023-12-28T12:18:56;3.47;;;1.25;;
11711;SDS011;5912;51.034;6.984;2023-12-28T12:21:23;5.45;;;1.10;;
11711;SDS011;5912;51.034;6.984;2023-12-28T12:23:48;4.45;;;1.23;;
11711;SDS011;5912;51.034;6.984;2023-12-28T12:26:17;3.88;;;1.17;;
11711;SDS011;5912;51.034;6.984;2023-12-28T12:28:43;6.07;;;1.30;;
11711;SDS011;5912;51.034;6.984;2023-12-28T12:31:09;6.40;;;1.30;;
11711;SDS011;5912;51.034;6.984;2023-12-28T12:33:36;4.15;;;1.20;;
11711;SDS011;5912;51.034;6.984;2023-12-28T12:36:03;6.40;;;1.23;;
11711;SDS011;5912;51.034;6.984;2023-12-28T12:38:30;3.50;;;1.30;;
11711;SDS011;5912;51.034;6.984;2023-12-28T12:40:57;3.17;;;1.15;;
11711;SDS011;5912;51.034;6.984;2023-12-28T12:43:23;3.35;;;0.90;;
11711;SDS011;5912;51.034;6.984;2023-12-28T12:45:48;3.90;;;1.27;;
11711;SDS011;5912;51.034;6.984;2023-12-28T12:48:13;6.18;;;1.23;;
11711;SDS011;5912;51.034;6.984;2023-12-28T12:50:39;3.30;;;1.02;;
11711;SDS011;5912;51.034;6.984;2023-12-28T12:53:04;3.35;;;1.40;;
11711;SDS011;5912;51.034;6.984;2023-12-28T12:55:30;5.97;;;1.42;;
11711;SDS011;5912;51.034;6.984;2023-12-28T12:57:56;7.32;;;1.50;;
11711;SDS011;5912;51.034;6.984;2023-12-28T13:00:23;4.47;;;1.33;;
11711;SDS011;5912;51.034;6.984;2023-12-28T13:02:49;5.53;;;1.38;;
11711;SDS011;5912;51.034;6.984;2023-12-28T13:05:16;2.72;;;1.10;;
11711;SDS011;5912;51.034;6.984;2023-12-28T13:07:42;7.80;;;1.77;;
11711;SDS011;5912;51.034;6.984;2023-12-28T13:10:07;4.63;;;1.33;;
11711;SDS011;5912;51.034;6.984;2023-12-28T13:12:33;5.20;;;1.20;;
11711;SDS011;5912;51.034;6.984;2023-12-28T13:14:58;3.90;;;1.20;;
11711;SDS011;5912;51.034;6.984;2023-12-28T13:17:23;4.90;;;1.20;;
11711;SDS011;5912;51.034;6.984;2023-12-28T13:19:49;6.30;;;1.33;;
11711;SDS011;5912;51.034;6.984;2023-12-28T13:22:14;5.82;;;1.73;;
11711;SDS011;5912;51.034;6.984;2023-12-28T13:24:39;4.82;;;1.38;;
11711;SDS011;5912;51.034;6.984;2023-12-28T13:27:05;5.30;;;1.00;;
11711;SDS011;5912;51.034;6.984;2023-12-28T13:29:30;4.97;;;1.63;;
11711;SDS011;5912;51.034;6.984;2023-12-28T13:31:55;2.90;;;1.00;;
11711;SDS011;5912;51.034;6.984;2023-12-28T13:34:20;4.72;;;1.33;;
11711;SDS011;5912;51.034;6.984;2023-12-28T13:36:53;4.38;;;1.10;;
11711;SDS011;5912;51.034;6.984;2023-12-28T13:39:18;5.78;;;1.30;;
11711;SDS011;5912;51.034;6.984;2023-12-28T13:41:44;5.75;;;1.20;;
11711;SDS011;5912;51.034;6.984;2023-12-28T13:44:09;3.28;;;1.40;;
11711;SDS011;5912;51.034;6.984;2023-12-28T13:46:37;6.15;;;1.40;;
11711;SDS011;5912;51.034;6.984;2023-12-28T13:49:02;3.13;;;0.95;;
11711;SDS011;5912;51.034;6.984;2023-12-28T13:51:29;3.60;;;0.95;;
11711;SDS011;5912;51.034;6.984;2023-12-28T13:53:57;3.92;;;1.00;;
11711;SDS011;5912;51.034;6.984;2023-12-28T13:56:22;4.97;;;1.60;;
11711;SDS011;5912;51.034;6.984;2023-12-28T13:58:48;2.70;;;0.80;;
11711;SDS011;5912;51.034;6.984;2023-12-28T14:01:13;3.50;;;1.00;;
11711;SDS011;5912;51.034;6.984;2023-12-28T14:03:39;5.90;;;1.15;;
11711;SDS011;5912;51.034;6.984;2023-12-28T14:06:04;2.30;;;1.00;;
11711;SDS011;5912;51.034;6.984;2023-12-28T14:08:30;3.17;;;1.00;;
11711;SDS011;5912;51.034;6.984;2023-12-28T14:10:55;3.60;;;1.20;;
11711;SDS011;5912;51.034;6.984;2023-12-28T14:13:20;3.08;;;1.00;;
11711;SDS011;5912;51.034;6.984;2023-12-28T14:15:46;3.05;;;1.00;;
11711;SDS011;5912;51.034;6.984;2023-12-28T14:18:12;4.47;;;1.50;;
11711;SDS011;5912;51.034;6.984;2023-12-28T14:20:37;4.72;;;1.20;;
11711;SDS011;5912;51.034;6.984;2023-12-28T14:23:02;5.15;;;1.10;;
11711;SDS011;5912;51.034;6.984;2023-12-28T14:25:28;6.80;;;1.00;;
11711;SDS011;5912;51.034;6.984;2023-12-28T14:27:54;3.85;;;1.20;;
11711;SDS011;5912;51.034;6.984;2023-12-28T14:30:19;2.55;;;1.00;;
11711;SDS011;5912;51.034;6.984;2023-12-28T14:32:45;3.83;;;1.17;;
11711;SDS011;5912;51.034;6.984;2023-12-28T14:35:11;3.35;;;1.00;;
11711;SDS011;5912;51.034;6.984;2023-12-28T14:37:37;5.25;;;1.30;;
11711;SDS011;5912;51.034;6.984;2023-12-28T14:40:02;5.10;;;1.20;;
11711;SDS011;5912;51.034;6.984;2023-12-28T14:42:31;4.47;;;1.00;;
11711;SDS011;5912;51.034;6.984;2023-12-28T14:44:57;5.13;;;1.67;;
11711;SDS011;5912;51.034;6.984;2023-12-28T14:47:23;4.53;;;1.40;;
11711;SDS011;5912;51.034;6.984;2023-12-28T14:49:48;4.20;;;1.20;;
11711;SDS011;5912;51.034;6.984;2023-12-28T14:52:13;5.72;;;1.20;;
11711;SDS011;5912;51.034;6.984;2023-12-28T14:54:38;5.65;;;1.45;;
11711;SDS011;5912;51.034;6.984;2023-12-28T14:57:04;5.47;;;1.50;;
11711;SDS011;5912;51.034;6.984;2023-12-28T14:59:29;7.53;;;1.80;;
11711;SDS011;5912;51.034;6.984;2023-12-28T15:01:54;8.02;;;1.20;;
11711;SDS011;5912;51.034;6.984;2023-12-28T15:04:20;5.18;;;1.50;;